Time;durP1;ratioP1;P1;durP2;ratioP2;P2;SDS_P1;SDS_P2;PMS_P1;PMS_P2;Temp;Humidity;BMP_temperature;BMP_pressure;BME280_temperature;BME280_humidity;BME280_pressure;Samples;Min_cycle;Max_cycle;Signal;HPM_P1;HPM_P2
2023/08/16 00:02:22;;;;;;;2.63;2.10;;;19.60;99.90;;;;;;5094054;28;20624;-72
2023/08/16 00:04:49;;;;;;;4.00;3.00;;;19.60;99.90;;;;;;5089624;28;20621;-73
2023/08/16 00:07:16;;;;;;;3.43;2.90;;;19.70;99.90;;;;;;5100389;28;20636;-73
2023/08/16 00:09:43;;;;;;;3.07;2.80;;;19.80;99.90;;;;;;5093803;28;20629;-72
2023/08/16 00:12:10;;;;;;;4.53;3.40;;;20.00;99.90;;;;;;5092736;28;20634;-73
2023/08/16 00:14:38;;;;;;;3.23;2.97;;;20.20;99.90;;;;;;5097106;28;20650;-73
2023/08/16 00:17:05;;;;;;;2.47;2.00;;;20.30;99.90;;;;;;5088683;28;20638;-73
2023/08/16 00:19:32;;;;;;;2.90;2.60;;;20.40;99.90;;;;;;5088830;28;20644;-73
2023/08/16 00:21:58;;;;;;;6.10;2.27;;;20.50;99.90;;;;;;5097346;28;20670;-73
2023/08/16 00:24:25;;;;;;;5.47;2.87;;;20.40;99.90;;;;;;5097664;28;20624;-73
2023/08/16 00:26:52;;;;;;;3.10;2.80;;;20.40;99.90;;;;;;5092721;28;20724;-73
2023/08/16 00:29:19;;;;;;;2.80;2.60;;;20.40;99.90;;;;;;5091333;28;20623;-73
2023/08/16 00:31:47;;;;;;;3.67;3.37;;;20.50;99.90;;;;;;5098359;28;21028;-73
2023/08/16 00:34:14;;;;;;;3.27;2.97;;;20.30;99.90;;;;;;5097016;28;21003;-73
2023/08/16 00:36:40;;;;;;;3.33;2.90;;;20.20;99.90;;;;;;5088828;28;20719;-73
2023/08/16 00:39:07;;;;;;;4.00;3.70;;;20.10;99.90;;;;;;5093752;28;20673;-72
2023/08/16 00:41:34;;;;;;;2.90;2.30;;;20.00;99.90;;;;;;5093048;28;20633;-72
2023/08/16 00:44:01;;;;;;;6.77;3.40;;;19.90;99.90;;;;;;5093799;28;20625;-72
2023/08/16 00:46:30;;;;;;;4.17;2.70;;;20.00;99.90;;;;;;5088412;28;20630;-72
2023/08/16 00:48:58;;;;;;;3.10;2.90;;;20.20;99.90;;;;;;5087726;28;20632;-72
2023/08/16 00:51:25;;;;;;;6.60;3.40;;;20.10;99.90;;;;;;5101484;28;20625;-72
2023/08/16 00:53:53;;;;;;;3.43;3.00;;;20.00;99.90;;;;;;5097168;28;20630;-72
2023/08/16 00:56:21;;;;;;;3.30;3.00;;;20.00;99.90;;;;;;5091861;28;21170;-72
2023/08/16 00:58:47;;;;;;;2.60;2.40;;;19.90;99.90;;;;;;5090436;28;21188;-72
2023/08/16 01:01:15;;;;;;;3.07;2.77;;;19.90;99.90;;;;;;5099134;28;20635;-72
2023/08/16 01:03:41;;;;;;;3.30;3.10;;;20.00;99.90;;;;;;5100437;28;20616;-72
2023/08/16 01:06:10;;;;;;;2.53;2.33;;;20.10;99.90;;;;;;5098630;28;20616;-72
2023/08/16 01:08:37;;;;;;;3.70;3.10;;;20.00;99.90;;;;;;5097860;28;20617;-72
2023/08/16 01:11:11;;;;;;;3.43;3.13;;;20.00;99.90;;;;;;5087014;28;21424;-72
2023/08/16 01:13:57;;;;;;;3.53;3.13;;;19.80;99.90;;;;;;5081349;28;20732;-72
2023/08/16 01:16:28;;;;;;;2.73;2.53;;;19.70;99.90;;;;;;5091220;28;20724;-72
2023/08/16 01:18:57;;;;;;;3.83;3.40;;;19.80;99.90;;;;;;5094173;28;20978;-72
2023/08/16 01:21:27;;;;;;;3.30;3.10;;;19.80;99.90;;;;;;5091332;28;20986;-72
2023/08/16 01:24:05;;;;;;;3.47;3.23;;;19.70;99.90;;;;;;5088066;28;21011;-72
2023/08/16 01:26:36;;;;;;;3.30;3.00;;;19.60;99.90;;;;;;5090018;28;20624;-73
2023/08/16 01:29:05;;;;;;;3.10;2.80;;;19.50;99.90;;;;;;5093503;28;20719;-72
2023/08/16 01:31:33;;;;;;;4.10;3.23;;;19.50;99.90;;;;;;5097605;28;20784;-72
2023/08/16 01:34:01;;;;;;;3.10;2.90;;;19.50;99.90;;;;;;5096291;28;20985;-72
2023/08/16 01:36:28;;;;;;;3.57;3.20;;;19.50;99.90;;;;;;5101176;28;20732;-72
2023/08/16 01:38:57;;;;;;;5.20;2.70;;;19.60;99.90;;;;;;5100127;28;20677;-72
2023/08/16 01:41:29;;;;;;;3.20;3.00;;;19.50;99.90;;;;;;5098860;28;21083;-72
2023/08/16 01:43:59;;;;;;;4.47;3.50;;;19.50;99.90;;;;;;5099833;28;20631;-72
2023/08/16 01:46:29;;;;;;;3.13;2.87;;;19.40;99.90;;;;;;5091119;28;20617;-72
2023/08/16 01:48:58;;;;;;;3.53;3.23;;;19.30;99.90;;;;;;5093085;28;20638;-73
2023/08/16 01:51:26;;;;;;;3.23;2.97;;;19.40;99.90;;;;;;5096659;28;21015;-72
2023/08/16 01:53:55;;;;;;;3.73;3.30;;;19.40;99.90;;;;;;5100538;28;21223;-72
2023/08/16 01:56:23;;;;;;;3.40;3.10;;;19.30;99.90;;;;;;5100265;28;20635;-72
2023/08/16 01:58:51;;;;;;;3.87;3.50;;;19.30;99.90;;;;;;5099913;28;21141;-72
2023/08/16 02:01:20;;;;;;;3.30;3.00;;;19.30;99.90;;;;;;5103036;28;20629;-72
2023/08/16 02:03:48;;;;;;;6.00;3.00;;;19.20;99.90;;;;;;5099281;28;20819;-72
2023/08/16 02:06:15;;;;;;;4.17;3.20;;;19.20;99.90;;;;;;5097053;28;20653;-72
2023/08/16 02:08:42;;;;;;;3.57;3.27;;;19.20;99.90;;;;;;5100059;28;21243;-72
2023/08/16 02:11:09;;;;;;;3.77;3.10;;;19.20;99.90;;;;;;5091343;28;20635;-72
2023/08/16 02:13:36;;;;;;;3.50;3.20;;;19.10;99.90;;;;;;5101350;28;20636;-73
2023/08/16 02:16:04;;;;;;;3.47;3.17;;;19.10;99.90;;;;;;5092650;28;21132;-73
2023/08/16 02:18:33;;;;;;;3.63;3.33;;;19.10;99.90;;;;;;5091194;28;21173;-72
2023/08/16 02:20:59;;;;;;;3.40;3.10;;;19.10;99.90;;;;;;5090772;28;20962;-72
2023/08/16 02:23:27;;;;;;;4.60;4.20;;;19.10;99.90;;;;;;5101114;28;20717;-72
2023/08/16 02:25:55;;;;;;;3.97;3.67;;;19.00;99.90;;;;;;5106414;28;20677;-72
2023/08/16 02:28:23;;;;;;;3.60;3.30;;;19.00;99.90;;;;;;5102424;28;20632;-72
2023/08/16 02:30:51;;;;;;;3.40;3.10;;;19.00;99.90;;;;;;5097908;28;20715;-72
2023/08/16 02:33:18;;;;;;;3.67;3.37;;;19.00;99.90;;;;;;5100147;28;20678;-72
2023/08/16 02:35:47;;;;;;;3.97;3.57;;;19.00;99.90;;;;;;5094511;28;20652;-72
2023/08/16 02:38:14;;;;;;;6.20;2.87;;;19.00;99.90;;;;;;5097170;28;20963;-72
2023/08/16 02:40:42;;;;;;;3.40;3.10;;;19.00;99.90;;;;;;5098518;28;21073;-72
2023/08/16 02:43:09;;;;;;;3.30;3.03;;;19.00;99.90;;;;;;5099309;28;20631;-72
2023/08/16 02:45:37;;;;;;;2.93;2.77;;;19.00;99.90;;;;;;5093333;28;20690;-72
2023/08/16 02:48:06;;;;;;;4.80;3.93;;;19.00;99.90;;;;;;5093893;28;21005;-72
2023/08/16 02:50:34;;;;;;;4.17;3.50;;;19.00;99.90;;;;;;5093086;28;20625;-72
2023/08/16 02:53:03;;;;;;;4.27;3.87;;;18.90;99.90;;;;;;5098970;28;20630;-72
2023/08/16 02:55:31;;;;;;;3.60;3.30;;;18.80;99.90;;;;;;5095711;28;20742;-72
2023/08/16 02:57:59;;;;;;;3.70;3.40;;;18.80;99.90;;;;;;5101811;28;20689;-72
2023/08/16 03:00:27;;;;;;;3.37;3.07;;;18.80;99.90;;;;;;5089175;28;20629;-72
2023/08/16 03:02:55;;;;;;;3.07;2.60;;;18.80;99.90;;;;;;5099484;28;20617;-72
2023/08/16 03:05:22;;;;;;;3.63;3.33;;;18.80;99.90;;;;;;5098622;28;20964;-72
2023/08/16 03:07:50;;;;;;;3.13;2.90;;;18.70;99.90;;;;;;5096615;28;20650;-72
2023/08/16 03:10:19;;;;;;;3.77;3.20;;;18.80;99.90;;;;;;5091529;28;20943;-72
2023/08/16 03:12:47;;;;;;;3.67;3.37;;;18.80;99.90;;;;;;5089530;28;20617;-72
2023/08/16 03:15:14;;;;;;;3.47;3.20;;;18.70;99.90;;;;;;5097727;28;21027;-72
2023/08/16 03:17:40;;;;;;;3.40;2.93;;;18.80;99.90;;;;;;5102732;28;20950;-72
2023/08/16 03:20:09;;;;;;;3.70;3.00;;;18.70;99.90;;;;;;5090055;28;20653;-72
2023/08/16 03:22:36;;;;;;;3.80;2.70;;;18.80;99.90;;;;;;5091742;28;20628;-72
2023/08/16 03:25:03;;;;;;;3.50;3.00;;;18.70;99.90;;;;;;5100597;28;20620;-72
2023/08/16 03:27:31;;;;;;;4.20;3.13;;;18.60;99.90;;;;;;5097517;28;20656;-72
2023/08/16 03:29:58;;;;;;;3.27;3.00;;;18.70;99.90;;;;;;5096638;28;20632;-72
2023/08/16 03:32:25;;;;;;;3.93;2.93;;;18.60;99.90;;;;;;5097673;28;20677;-72
2023/08/16 03:34:52;;;;;;;3.93;3.63;;;18.50;99.90;;;;;;5094544;28;20680;-72
2023/08/16 03:37:19;;;;;;;3.40;3.10;;;18.50;99.90;;;;;;5089588;28;20621;-72
2023/08/16 03:39:46;;;;;;;3.73;3.23;;;18.60;99.90;;;;;;5092931;28;20655;-72
2023/08/16 03:42:12;;;;;;;3.30;3.00;;;18.60;99.90;;;;;;5095408;28;20623;-72
2023/08/16 03:44:40;;;;;;;3.80;3.50;;;18.50;99.90;;;;;;5094017;28;20665;-72
2023/08/16 03:47:07;;;;;;;3.67;3.27;;;18.50;99.90;;;;;;5091890;28;20616;-72
2023/08/16 03:49:34;;;;;;;3.70;3.40;;;18.50;99.90;;;;;;5094677;28;20616;-72
2023/08/16 03:52:01;;;;;;;3.23;3.03;;;18.50;99.90;;;;;;5093425;28;20632;-72
2023/08/16 03:54:27;;;;;;;4.70;4.10;;;18.40;99.90;;;;;;5088255;28;20727;-72
2023/08/16 03:56:56;;;;;;;4.53;3.73;;;18.40;99.90;;;;;;5093919;28;20656;-72
2023/08/16 03:59:23;;;;;;;3.77;3.43;;;18.30;99.90;;;;;;5092437;28;20617;-72
2023/08/16 04:01:51;;;;;;;8.13;3.97;;;18.20;99.90;;;;;;5101414;28;20620;-72
2023/08/16 04:04:18;;;;;;;3.90;3.60;;;18.20;99.90;;;;;;5086654;28;20641;-72
2023/08/16 04:06:44;;;;;;;5.10;3.67;;;18.20;99.90;;;;;;5088629;28;20625;-72
2023/08/16 04:09:11;;;;;;;3.70;3.40;;;18.30;99.90;;;;;;5088390;28;20628;-72
2023/08/16 04:11:38;;;;;;;3.40;3.10;;;18.40;99.90;;;;;;5092424;28;20655;-72
2023/08/16 04:14:05;;;;;;;3.50;3.30;;;18.40;99.90;;;;;;5092437;28;20631;-72
2023/08/16 04:16:32;;;;;;;4.07;3.40;;;18.40;99.90;;;;;;5089866;28;20664;-72
2023/08/16 04:19:00;;;;;;;3.83;3.50;;;18.40;99.90;;;;;;5088706;28;20629;-72
2023/08/16 04:21:27;;;;;;;4.13;3.13;;;18.40;99.90;;;;;;5089052;28;21264;-73
2023/08/16 04:23:53;;;;;;;3.43;3.13;;;18.40;99.90;;;;;;5089340;28;21187;-73
2023/08/16 04:26:21;;;;;;;4.07;3.67;;;18.40;99.90;;;;;;5090352;28;20627;-73
2023/08/16 04:28:48;;;;;;;3.10;2.90;;;18.50;99.90;;;;;;5090729;28;20604;-73
2023/08/16 04:31:14;;;;;;;4.00;3.60;;;18.50;99.90;;;;;;5086820;28;21086;-73
2023/08/16 04:33:57;;;;;;;4.30;3.90;;;18.40;99.90;;;;;;5088703;28;20683;-74
2023/08/16 04:36:25;;;;;;;3.27;2.97;;;18.50;99.90;;;;;;5085855;28;20671;-73
2023/08/16 04:38:51;;;;;;;3.93;3.50;;;18.60;99.90;;;;;;5091006;28;20710;-73
2023/08/16 04:41:18;;;;;;;3.50;3.20;;;18.60;99.90;;;;;;5090048;28;20814;-73
2023/08/16 04:43:45;;;;;;;3.93;3.60;;;18.70;99.90;;;;;;5089573;28;20621;-73
2023/08/16 04:46:12;;;;;;;3.37;2.90;;;18.60;99.90;;;;;;5091627;28;20723;-73
2023/08/16 04:48:38;;;;;;;3.40;3.20;;;18.60;99.90;;;;;;5098874;28;20831;-73
2023/08/16 04:51:05;;;;;;;4.23;3.83;;;18.60;99.90;;;;;;5091077;28;20629;-74
2023/08/16 04:53:33;;;;;;;3.50;3.17;;;18.70;99.90;;;;;;5086117;28;20627;-73
2023/08/16 04:56:00;;;;;;;4.13;3.77;;;18.70;99.90;;;;;;5090187;28;21047;-74
2023/08/16 04:58:27;;;;;;;3.67;3.20;;;18.70;99.90;;;;;;5085856;28;20617;-74
2023/08/16 05:00:53;;;;;;;3.40;3.20;;;18.80;99.90;;;;;;5087668;28;20694;-73
2023/08/16 05:03:20;;;;;;;3.50;3.00;;;18.90;99.90;;;;;;5088512;28;20719;-74
2023/08/16 05:05:47;;;;;;;4.53;3.27;;;19.00;99.90;;;;;;5095093;28;20616;-72
2023/08/16 05:08:14;;;;;;;3.63;3.33;;;19.10;99.90;;;;;;5088874;28;21020;-74
2023/08/16 05:10:42;;;;;;;3.10;2.80;;;19.20;99.90;;;;;;5089566;28;20631;-73
2023/08/16 05:13:09;;;;;;;3.40;3.10;;;19.30;99.90;;;;;;5102336;28;20620;-73
2023/08/16 05:15:35;;;;;;;3.73;3.37;;;19.30;99.90;;;;;;5079528;28;20649;-74
2023/08/16 05:18:02;;;;;;;3.07;2.87;;;19.40;99.90;;;;;;5091719;28;20898;-74
2023/08/16 05:20:29;;;;;;;3.60;3.30;;;19.50;99.90;;;;;;5086044;28;20635;-73
2023/08/16 05:22:56;;;;;;;3.77;3.30;;;19.60;99.90;;;;;;5090053;28;20633;-75
2023/08/16 05:25:22;;;;;;;3.70;3.33;;;19.60;99.90;;;;;;5078113;28;20633;-73
2023/08/16 05:27:50;;;;;;;3.30;3.10;;;19.70;99.90;;;;;;5089167;28;20630;-73
2023/08/16 05:30:17;;;;;;;3.97;3.53;;;19.70;99.90;;;;;;5094350;28;21128;-73
2023/08/16 05:32:44;;;;;;;4.10;2.90;;;19.70;99.90;;;;;;5091207;28;21172;-72
2023/08/16 05:35:11;;;;;;;3.20;2.90;;;19.80;99.90;;;;;;5098006;28;20735;-73
2023/08/16 05:37:37;;;;;;;3.70;3.37;;;19.90;99.90;;;;;;5089501;28;20736;-71
2023/08/16 05:40:05;;;;;;;4.30;3.80;;;19.90;99.90;;;;;;5091052;28;20635;-72
2023/08/16 05:42:32;;;;;;;5.37;3.47;;;20.00;99.90;;;;;;5092065;28;20657;-72
2023/08/16 05:45:00;;;;;;;5.43;4.70;;;20.10;99.90;;;;;;5095480;28;20629;-72
2023/08/16 05:47:27;;;;;;;4.10;3.37;;;20.30;99.90;;;;;;5095635;28;20728;-72
2023/08/16 05:49:54;;;;;;;5.80;5.30;;;20.40;99.90;;;;;;5096153;28;20623;-72
2023/08/16 05:52:21;;;;;;;3.70;3.40;;;20.50;99.90;;;;;;5092592;28;20626;-72
2023/08/16 05:54:47;;;;;;;4.40;4.00;;;20.40;99.90;;;;;;5087303;28;20625;-72
2023/08/16 05:57:14;;;;;;;4.70;4.30;;;20.50;99.90;;;;;;5093793;28;20649;-73
2023/08/16 05:59:41;;;;;;;4.87;4.43;;;20.60;99.90;;;;;;5087372;28;20624;-73
2023/08/16 06:02:09;;;;;;;6.87;4.43;;;20.70;99.90;;;;;;5097360;28;20631;-73
2023/08/16 06:04:36;;;;;;;4.57;4.03;;;20.80;99.90;;;;;;5086997;28;20628;-72
2023/08/16 06:07:04;;;;;;;5.27;4.77;;;21.00;99.90;;;;;;5086526;28;20637;-72
2023/08/16 06:09:32;;;;;;;6.40;5.17;;;21.00;99.90;;;;;;5094971;28;20729;-72
2023/08/16 06:12:00;;;;;;;11.73;5.37;;;21.10;99.90;;;;;;5097022;28;20629;-72
2023/08/16 06:14:26;;;;;;;7.13;6.43;;;21.20;99.90;;;;;;5086529;28;20624;-73
2023/08/16 06:16:53;;;;;;;7.97;6.70;;;21.20;99.90;;;;;;5092581;28;20644;-73
2023/08/16 06:19:21;;;;;;;6.20;5.60;;;21.30;99.90;;;;;;5092360;28;20687;-73
2023/08/16 06:21:48;;;;;;;6.43;5.83;;;21.40;99.90;;;;;;5095549;28;21034;-73
2023/08/16 06:24:15;;;;;;;8.10;5.53;;;21.40;99.90;;;;;;5100443;28;21208;-73
2023/08/16 06:26:42;;;;;;;7.67;6.70;;;21.40;99.90;;;;;;5093423;28;21177;-73
2023/08/16 06:29:08;;;;;;;7.03;6.30;;;21.50;99.90;;;;;;5096686;28;21207;-74
2023/08/16 06:31:35;;;;;;;7.37;5.87;;;21.50;99.90;;;;;;5095332;28;20630;-74
2023/08/16 06:34:02;;;;;;;7.93;6.53;;;21.50;99.90;;;;;;5100777;28;20628;-74
2023/08/16 06:36:30;;;;;;;9.80;6.87;;;21.50;99.90;;;;;;5089557;28;21076;-74
2023/08/16 06:38:57;;;;;;;5.70;5.20;;;21.40;99.90;;;;;;5097594;28;20620;-74
2023/08/16 06:41:23;;;;;;;5.77;5.27;;;21.40;99.90;;;;;;5091075;28;20660;-72
2023/08/16 06:43:50;;;;;;;8.23;6.57;;;21.30;99.90;;;;;;5096802;28;20622;-72
2023/08/16 06:46:17;;;;;;;9.30;6.60;;;21.30;99.90;;;;;;5090059;28;20978;-72
2023/08/16 06:48:44;;;;;;;7.43;5.13;;;21.30;99.90;;;;;;5095331;28;20750;-72
2023/08/16 06:51:11;;;;;;;15.70;6.10;;;21.40;99.90;;;;;;5092209;28;21158;-72
2023/08/16 06:53:40;;;;;;;6.20;5.60;;;21.40;99.90;;;;;;5089904;28;20632;-72
2023/08/16 06:56:07;;;;;;;9.33;5.00;;;21.50;99.90;;;;;;5089593;28;20662;-72
2023/08/16 06:58:34;;;;;;;5.90;4.63;;;21.50;99.90;;;;;;5099251;28;20622;-72
2023/08/16 07:01:01;;;;;;;6.07;5.57;;;21.70;99.90;;;;;;5095066;28;20626;-72
2023/08/16 07:03:28;;;;;;;5.83;5.33;;;21.80;99.90;;;;;;5095797;28;20669;-72
2023/08/16 07:05:56;;;;;;;6.67;6.07;;;21.90;99.90;;;;;;5100246;28;20614;-72
2023/08/16 07:08:22;;;;;;;15.77;7.10;;;21.90;99.90;;;;;;5093001;28;20990;-72
2023/08/16 07:10:54;;;;;;;6.27;5.67;;;22.00;99.90;;;;;;5097418;28;20669;-71
2023/08/16 07:13:20;;;;;;;8.97;5.37;;;21.90;99.90;;;;;;5091656;28;21252;-73
2023/08/16 07:15:47;;;;;;;8.77;5.20;;;21.80;99.90;;;;;;5088227;28;20633;-73
2023/08/16 07:18:14;;;;;;;6.00;5.20;;;21.80;99.90;;;;;;5101258;28;21016;-72
2023/08/16 07:20:41;;;;;;;5.87;4.27;;;21.90;99.90;;;;;;5097456;28;20989;-73
2023/08/16 07:23:08;;;;;;;7.27;5.33;;;22.00;99.90;;;;;;5089489;28;20729;-76
2023/08/16 07:25:35;;;;;;;5.37;4.57;;;22.30;99.90;;;;;;5089450;28;20636;-72
2023/08/16 07:28:04;;;;;;;6.00;5.50;;;22.50;99.90;;;;;;5096781;28;20965;-72
2023/08/16 07:30:31;;;;;;;5.20;4.80;;;22.60;99.90;;;;;;5091701;28;20645;-72
2023/08/16 07:32:58;;;;;;;5.67;5.17;;;22.70;99.90;;;;;;5090988;28;20616;-72
2023/08/16 07:35:25;;;;;;;5.87;5.37;;;22.70;99.90;;;;;;5102764;28;20632;-72
2023/08/16 07:37:51;;;;;;;7.17;5.63;;;22.80;99.90;;;;;;5090244;28;20668;-72
2023/08/16 07:40:18;;;;;;;5.93;5.30;;;22.90;99.90;;;;;;5089397;28;20620;-72
2023/08/16 07:42:45;;;;;;;5.77;5.20;;;23.10;99.90;;;;;;5090224;28;20623;-72
2023/08/16 07:45:13;;;;;;;6.07;5.47;;;23.10;99.90;;;;;;5092509;28;20624;-72
2023/08/16 07:47:40;;;;;;;6.27;5.67;;;23.20;99.90;;;;;;5099742;28;20631;-72
2023/08/16 07:50:07;;;;;;;5.83;5.33;;;23.30;99.90;;;;;;5083350;28;20728;-72
2023/08/16 07:52:34;;;;;;;5.67;5.17;;;23.30;99.90;;;;;;5093587;28;20687;-72
2023/08/16 07:55:01;;;;;;;6.33;5.77;;;23.40;99.90;;;;;;5097510;28;20627;-72
2023/08/16 07:57:28;;;;;;;6.33;5.40;;;23.50;99.90;;;;;;5100190;28;20648;-72
2023/08/16 07:59:55;;;;;;;8.10;5.40;;;23.70;99.90;;;;;;5091846;28;20624;-72
2023/08/16 08:02:23;;;;;;;7.20;5.90;;;23.80;99.90;;;;;;5085106;28;20626;-72
2023/08/16 08:04:50;;;;;;;6.33;5.73;;;23.90;99.90;;;;;;5089077;28;20634;-72
2023/08/16 08:07:18;;;;;;;6.70;6.20;;;23.90;99.90;;;;;;5097478;28;20639;-72
2023/08/16 08:09:45;;;;;;;6.53;5.77;;;24.00;99.90;;;;;;5082503;28;20645;-72
2023/08/16 08:12:11;;;;;;;5.93;5.30;;;24.10;99.90;;;;;;5097574;28;20738;-72
2023/08/16 08:14:38;;;;;;;7.20;5.77;;;24.10;99.90;;;;;;5088673;28;20633;-72
2023/08/16 08:17:05;;;;;;;6.63;5.97;;;24.20;99.90;;;;;;5097266;28;20745;-72
2023/08/16 08:19:33;;;;;;;5.20;4.70;;;24.30;99.90;;;;;;5095625;28;20934;-73
2023/08/16 08:22:01;;;;;;;5.83;5.33;;;24.40;99.90;;;;;;5098489;28;20725;-72
2023/08/16 08:24:27;;;;;;;5.00;4.60;;;24.40;99.90;;;;;;5090518;28;20716;-72
2023/08/16 08:26:56;;;;;;;6.90;6.03;;;24.60;99.90;;;;;;5088696;28;20639;-72
2023/08/16 08:29:25;;;;;;;5.67;4.63;;;24.70;99.90;;;;;;5096542;28;20631;-72
2023/08/16 08:31:52;;;;;;;5.50;5.00;;;24.60;99.90;;;;;;5099477;28;20627;-72
2023/08/16 08:34:19;;;;;;;5.63;5.17;;;24.70;99.90;;;;;;5090842;28;21208;-72
2023/08/16 08:36:47;;;;;;;9.53;5.60;;;24.50;99.90;;;;;;5096591;28;20757;-72
2023/08/16 08:39:18;;;;;;;5.87;4.27;;;24.70;99.90;;;;;;5095313;28;20659;-72
2023/08/16 08:41:48;;;;;;;5.67;5.10;;;24.90;99.90;;;;;;5096980;28;21017;-72
2023/08/16 08:44:15;;;;;;;6.30;5.00;;;25.00;99.90;;;;;;5088600;28;20622;-72
2023/08/16 08:46:44;;;;;;;5.97;5.30;;;24.90;99.90;;;;;;5088709;28;20647;-72
2023/08/16 08:49:11;;;;;;;5.80;5.23;;;24.90;99.90;;;;;;5088466;28;21279;-72
2023/08/16 08:51:40;;;;;;;5.73;5.10;;;25.20;99.90;;;;;;5087877;28;21238;-72
2023/08/16 08:54:08;;;;;;;6.40;5.80;;;25.20;99.90;;;;;;5099561;28;20628;-72
2023/08/16 08:56:36;;;;;;;6.00;5.00;;;25.40;99.90;;;;;;5094167;28;20653;-72
2023/08/16 08:59:04;;;;;;;7.77;6.23;;;25.50;99.90;;;;;;5087429;28;20736;-72
2023/08/16 09:01:32;;;;;;;5.63;5.23;;;25.50;99.90;;;;;;5087667;28;20644;-72
2023/08/16 09:04:02;;;;;;;6.57;5.27;;;25.70;99.90;;;;;;5085562;28;20632;-72
2023/08/16 09:06:29;;;;;;;5.73;5.23;;;25.90;99.80;;;;;;5087128;28;20648;-72
2023/08/16 09:08:57;;;;;;;5.10;4.60;;;26.00;98.70;;;;;;5094080;28;20620;-72
2023/08/16 09:11:25;;;;;;;5.43;4.93;;;25.90;99.40;;;;;;5094833;28;20632;-72
2023/08/16 09:13:53;;;;;;;5.20;4.70;;;25.90;99.30;;;;;;5097168;28;20705;-72
2023/08/16 09:16:20;;;;;;;7.80;5.50;;;26.00;98.90;;;;;;5093289;28;20723;-72
2023/08/16 09:18:48;;;;;;;7.70;5.30;;;26.20;98.40;;;;;;5094057;28;21000;-72
2023/08/16 09:21:16;;;;;;;5.53;5.07;;;26.20;98.50;;;;;;5087809;28;20621;-72
2023/08/16 09:23:43;;;;;;;6.37;5.57;;;26.30;98.80;;;;;;5084825;28;20621;-72
2023/08/16 09:26:14;;;;;;;5.80;5.30;;;26.50;97.70;;;;;;5095107;28;20955;-72
2023/08/16 09:28:42;;;;;;;7.37;4.60;;;26.70;96.50;;;;;;5096367;28;20666;-72
2023/08/16 09:31:09;;;;;;;5.23;4.73;;;27.00;96.70;;;;;;5093453;28;20631;-72
2023/08/16 09:33:36;;;;;;;6.40;5.90;;;27.10;96.60;;;;;;5090634;28;20628;-72
2023/08/16 09:36:05;;;;;;;4.47;4.17;;;27.30;95.00;;;;;;5094173;28;21267;-72
2023/08/16 09:38:32;;;;;;;5.13;4.40;;;27.20;94.80;;;;;;5088496;28;20656;-72
2023/08/16 09:41:00;;;;;;;5.73;5.20;;;27.40;95.30;;;;;;5091205;28;20616;-72
2023/08/16 09:43:33;;;;;;;5.63;5.23;;;27.40;96.30;;;;;;5097194;28;20735;-72
2023/08/16 09:46:03;;;;;;;6.43;5.80;;;27.40;95.30;;;;;;5093988;28;20621;-73
2023/08/16 09:48:32;;;;;;;4.83;4.47;;;27.40;94.60;;;;;;5093485;28;20628;-73
2023/08/16 09:51:01;;;;;;;5.77;5.27;;;27.40;94.70;;;;;;5083042;28;20728;-73
2023/08/16 09:53:28;;;;;;;7.10;5.53;;;27.40;93.90;;;;;;5090155;28;20739;-73
2023/08/16 09:55:59;;;;;;;6.70;5.70;;;27.40;94.40;;;;;;5092068;28;20720;-73
2023/08/16 09:58:28;;;;;;;7.40;5.87;;;27.40;95.30;;;;;;5091139;28;20648;-72
2023/08/16 10:00:56;;;;;;;6.00;5.10;;;27.50;95.30;;;;;;5090517;28;20635;-72
2023/08/16 10:03:25;;;;;;;6.30;4.70;;;27.70;95.90;;;;;;5095151;28;20720;-72
2023/08/16 10:05:54;;;;;;;5.37;4.97;;;27.90;95.50;;;;;;5099147;28;20615;-72
2023/08/16 10:08:21;;;;;;;5.67;5.17;;;27.90;94.70;;;;;;5099772;28;20637;-72
2023/08/16 10:10:49;;;;;;;6.13;5.47;;;27.80;94.00;;;;;;5091041;28;20620;-72
2023/08/16 10:13:16;;;;;;;7.97;5.30;;;27.90;94.30;;;;;;5101753;28;20629;-72
2023/08/16 10:15:46;;;;;;;5.00;4.60;;;27.90;95.10;;;;;;5097712;28;20625;-72
2023/08/16 10:18:13;;;;;;;5.30;4.90;;;28.00;94.60;;;;;;5096935;28;21232;-72
2023/08/16 10:20:45;;;;;;;5.37;4.83;;;28.20;94.60;;;;;;5090598;28;20992;-72
2023/08/16 10:23:13;;;;;;;6.27;5.70;;;28.20;93.60;;;;;;5092884;28;20625;-72
2023/08/16 10:25:45;;;;;;;5.50;5.00;;;28.20;93.90;;;;;;5097044;28;20927;-73
2023/08/16 10:28:14;;;;;;;5.17;4.77;;;28.10;94.10;;;;;;5090437;28;20616;-73
2023/08/16 10:30:42;;;;;;;5.73;5.23;;;28.00;94.30;;;;;;5090086;28;21137;-73
2023/08/16 10:33:15;;;;;;;6.40;5.50;;;28.10;93.60;;;;;;5095778;28;20651;-73
2023/08/16 10:35:43;;;;;;;5.83;5.27;;;28.20;94.70;;;;;;5091854;28;20608;-73
2023/08/16 10:38:10;;;;;;;5.33;4.83;;;28.30;93.70;;;;;;5099678;28;20679;-73
2023/08/16 10:40:37;;;;;;;8.40;5.60;;;28.40;93.90;;;;;;5098634;28;20722;-73
2023/08/16 10:43:06;;;;;;;5.37;4.87;;;28.50;94.00;;;;;;5099845;28;20631;-73
2023/08/16 10:45:35;;;;;;;6.13;5.10;;;28.70;93.50;;;;;;5099223;28;20701;-74
2023/08/16 10:48:10;;;;;;;5.20;4.80;;;28.80;94.30;;;;;;5102412;28;20632;-73
2023/08/16 10:50:37;;;;;;;5.13;4.70;;;29.00;93.90;;;;;;5100901;28;20621;-72
2023/08/16 10:53:07;;;;;;;6.20;5.30;;;29.20;92.80;;;;;;5093798;28;20971;-72
2023/08/16 10:55:34;;;;;;;5.53;5.13;;;29.10;91.80;;;;;;5096792;28;21181;-72
2023/08/16 10:58:02;;;;;;;6.07;5.57;;;29.30;93.00;;;;;;5098526;28;21221;-72
2023/08/16 11:00:32;;;;;;;5.97;5.47;;;29.40;91.90;;;;;;5093159;28;20619;-72
2023/08/16 11:03:00;;;;;;;6.43;5.83;;;29.60;92.10;;;;;;5097568;28;20842;-72
2023/08/16 11:05:29;;;;;;;8.13;4.93;;;29.70;91.40;;;;;;5091079;28;20616;-72
2023/08/16 11:07:56;;;;;;;5.67;5.20;;;29.80;90.70;;;;;;5096258;28;20655;-72
2023/08/16 11:10:34;;;;;;;6.00;5.40;;;30.00;89.60;;;;;;5098651;28;20628;-72
2023/08/16 11:13:03;;;;;;;6.90;4.73;;;30.10;91.40;;;;;;5086494;28;20626;-72
2023/08/16 11:15:29;;;;;;;5.57;5.07;;;30.30;90.40;;;;;;5091851;28;21090;-72
2023/08/16 11:17:56;;;;;;;8.17;4.90;;;30.40;88.50;;;;;;5098982;28;21226;-72
2023/08/16 11:20:25;;;;;;;5.70;5.23;;;30.50;87.90;;;;;;5088928;28;20653;-73
2023/08/16 11:22:53;;;;;;;6.03;5.53;;;30.70;89.20;;;;;;5097001;28;20625;-72
2023/08/16 11:25:20;;;;;;;4.93;4.53;;;30.90;88.90;;;;;;5098139;28;20974;-72
2023/08/16 11:27:50;;;;;;;4.93;4.53;;;31.00;88.00;;;;;;5089760;28;20616;-73
2023/08/16 11:30:17;;;;;;;5.20;4.80;;;31.10;84.10;;;;;;5098342;28;20617;-72
2023/08/16 11:32:44;;;;;;;5.27;4.83;;;31.20;83.40;;;;;;5092704;28;21837;-73
2023/08/16 11:35:12;;;;;;;5.60;5.07;;;31.60;83.70;;;;;;5096690;28;20619;-73
2023/08/16 11:37:40;;;;;;;7.33;5.63;;;31.80;82.40;;;;;;5091747;28;20648;-73
2023/08/16 11:40:09;;;;;;;5.77;5.17;;;31.90;85.00;;;;;;5089432;28;21164;-73
2023/08/16 11:42:37;;;;;;;5.27;4.77;;;32.10;83.70;;;;;;5098231;28;20962;-73
2023/08/16 11:45:19;;;;;;;5.63;5.13;;;32.50;79.80;;;;;;5090485;28;20609;-73
2023/08/16 11:47:50;;;;;;;5.57;4.60;;;32.60;83.40;;;;;;5102692;28;20630;-73
2023/08/16 11:50:17;;;;;;;5.80;4.87;;;33.00;79.90;;;;;;5089030;28;20738;-73
2023/08/16 11:52:45;;;;;;;5.40;4.90;;;33.20;77.10;;;;;;5096868;28;20634;-73
2023/08/16 11:55:15;;;;;;;5.50;4.40;;;33.50;76.90;;;;;;5095234;28;20632;-73
2023/08/16 11:57:45;;;;;;;8.03;5.10;;;34.10;74.60;;;;;;5088080;28;20752;-73
2023/08/16 12:00:25;;;;;;;4.87;4.50;;;34.20;72.70;;;;;;5093541;28;20971;-73
2023/08/16 12:02:52;;;;;;;4.30;4.00;;;34.60;73.10;;;;;;5097361;28;20622;-73
2023/08/16 12:05:19;;;;;;;4.30;4.00;;;35.20;71.40;;;;;;5088980;28;20631;-73
2023/08/16 12:07:49;;;;;;;4.90;4.50;;;35.80;68.20;;;;;;5098989;28;20630;-73
2023/08/16 12:10:23;;;;;;;4.78;4.20;;;36.70;67.40;;;;;;5090064;28;20557;-73
2023/08/16 12:12:52;;;;;;;4.47;4.18;;;37.30;63.90;;;;;;5096999;28;20573;-74
2023/08/16 12:15:22;;;;;;;3.92;3.67;;;37.90;58.20;;;;;;5088273;28;20209;-74
2023/08/16 12:17:49;;;;;;;4.05;3.72;;;38.20;59.30;;;;;;5092522;28;20221;-74
2023/08/16 12:20:16;;;;;;;4.82;4.43;;;38.80;56.30;;;;;;5088349;28;20296;-72
2023/08/16 12:22:44;;;;;;;4.07;3.88;;;39.10;56.40;;;;;;5088953;28;20582;-72
2023/08/16 12:25:11;;;;;;;4.82;4.15;;;39.40;56.00;;;;;;5096174;28;20676;-72
2023/08/16 12:27:37;;;;;;;4.28;4.05;;;39.70;54.80;;;;;;5090421;28;20212;-72
2023/08/16 12:30:06;;;;;;;4.50;4.20;;;39.70;53.40;;;;;;5089249;28;20194;-71
2023/08/16 12:32:34;;;;;;;4.35;3.97;;;38.60;55.40;;;;;;5088954;28;20214;-71
2023/08/16 12:35:01;;;;;;;4.57;4.30;;;38.00;55.80;;;;;;5090910;28;20242;-71
2023/08/16 12:37:27;;;;;;;4.20;3.92;;;37.20;55.80;;;;;;5094280;28;20281;-71
2023/08/16 12:39:54;;;;;;;4.60;4.30;;;37.00;56.70;;;;;;5086152;28;20190;-71
2023/08/16 12:42:21;;;;;;;4.20;3.90;;;37.50;57.20;;;;;;5088970;28;20198;-71
2023/08/16 12:44:48;;;;;;;5.82;4.20;;;37.70;56.30;;;;;;5088717;28;20296;-71
2023/08/16 12:47:14;;;;;;;4.95;4.55;;;38.20;55.30;;;;;;5097236;28;20296;-71
2023/08/16 12:49:43;;;;;;;4.03;3.72;;;38.90;55.30;;;;;;5098760;28;20197;-71